Terminal Aerodrome Forecast
Issued by NWS

Home | Current Version | Previous Version | Text Only | Print | Product List | Glossary On
Versions: 1 2 3 4 5 6 7 8 9 10 11 12 13 14 15 16 17 18 19 20 21 22 23 24 25 26 27 28 29 30 31 32 33 34 35 36 37 38 39 40 41 42 43
000
FTUS41 KRNK 272337
TAFBCB
TAF
KBCB 272337Z 2800/2824 32011G21KT P6SM OVC045
      TEMPO 2800/2804 OVC035
     FM280700 32010G20KT P6SM BKN035
     FM281500 31012G23KT P6SM SCT035 SCT250
     FM282000 30010G20KT P6SM SCT250=

USA.gov is the U.S. government's official web portal to all federal, state and local government web resources and services.